sensor_id;sensor_type;location;lat;lon;timestamp;pressure;altitude;pressure_sealevel;temperature;humidity
64200;BME280;50516;52.272;5.136;2023-05-08T00:01:47;102074.38;;;15.10;87.87
64200;BME280;50516;52.272;5.136;2023-05-08T00:04:12;102075.47;;;15.09;87.40
64200;BME280;50516;52.272;5.136;2023-05-08T00:06:38;102086.53;;;15.09;87.37
64200;BME280;50516;52.272;5.136;2023-05-08T00:09:03;102074.09;;;15.07;87.57
64200;BME280;50516;52.272;5.136;2023-05-08T00:11:28;102073.25;;;15.06;87.55
64200;BME280;50516;52.272;5.136;2023-05-08T00:13:54;102068.25;;;15.03;87.55
64200;BME280;50516;52.272;5.136;2023-05-08T00:16:19;102063.59;;;15.04;87.57
64200;BME280;50516;52.272;5.136;2023-05-08T00:18:44;102061.63;;;14.99;87.60
64200;BME280;50516;52.272;5.136;2023-05-08T00:21:10;102065.22;;;15.00;87.26
64200;BME280;50516;52.272;5.136;2023-05-08T00:23:36;102059.41;;;14.96;87.60
64200;BME280;50516;52.272;5.136;2023-05-08T00:26:01;102058.81;;;14.89;87.68
64200;BME280;50516;52.272;5.136;2023-05-08T00:28:26;102061.03;;;14.87;87.95
64200;BME280;50516;52.272;5.136;2023-05-08T00:30:52;102063.25;;;14.85;88.04
64200;BME280;50516;52.272;5.136;2023-05-08T00:33:17;102065.19;;;14.84;87.81
64200;BME280;50516;52.272;5.136;2023-05-08T00:35:43;102066.28;;;14.83;87.81
64200;BME280;50516;52.272;5.136;2023-05-08T00:38:08;102066.00;;;14.79;87.84
64200;BME280;50516;52.272;5.136;2023-05-08T00:40:34;102057.16;;;14.83;87.81
64200;BME280;50516;52.272;5.136;2023-05-08T00:42:59;102054.09;;;14.79;87.72
64200;BME280;50516;52.272;5.136;2023-05-08T00:45:31;102062.97;;;14.81;87.32
64200;BME280;50516;52.272;5.136;2023-05-08T00:47:58;102063.78;;;14.82;87.88
64200;BME280;50516;52.272;5.136;2023-05-08T00:50:24;102067.63;;;14.70;87.61
64200;BME280;50516;52.272;5.136;2023-05-08T00:52:49;102080.28;;;14.66;88.20
64200;BME280;50516;52.272;5.136;2023-05-08T00:55:15;102076.03;;;14.43;89.77
64200;BME280;50516;52.272;5.136;2023-05-08T00:57:41;102083.25;;;14.54;89.43
64200;BME280;50516;52.272;5.136;2023-05-08T01:00:07;102076.66;;;14.55;89.27
64200;BME280;50516;52.272;5.136;2023-05-08T01:02:33;102078.63;;;14.60;89.15
64200;BME280;50516;52.272;5.136;2023-05-08T01:04:59;102076.97;;;14.64;89.41
64200;BME280;50516;52.272;5.136;2023-05-08T01:07:26;102076.69;;;14.60;88.99
64200;BME280;50516;52.272;5.136;2023-05-08T01:09:51;102065.88;;;14.59;88.69
64200;BME280;50516;52.272;5.136;2023-05-08T01:12:32;102070.91;;;14.62;88.92
64200;BME280;50516;52.272;5.136;2023-05-08T01:15:11;102067.59;;;14.60;88.83
64200;BME280;50516;52.272;5.136;2023-05-08T01:18:04;102072.25;;;14.59;88.57
64200;BME280;50516;52.272;5.136;2023-05-08T01:20:57;102073.09;;;14.60;88.39
64200;BME280;50516;52.272;5.136;2023-05-08T01:24:04;102079.69;;;14.59;88.18
64200;BME280;50516;52.272;5.136;2023-05-08T01:29:56;102086.84;;;14.55;88.09
64200;BME280;50516;52.272;5.136;2023-05-08T01:32:33;102083.53;;;14.53;88.50
64200;BME280;50516;52.272;5.136;2023-05-08T01:40:49;102080.69;;;14.37;88.40
64200;BME280;50516;52.272;5.136;2023-05-08T01:43:25;102084.56;;;14.36;88.15
64200;BME280;50516;52.272;5.136;2023-05-08T01:45:54;102080.38;;;14.34;88.39
64200;BME280;50516;52.272;5.136;2023-05-08T01:48:46;102072.34;;;14.32;88.19
64200;BME280;50516;52.272;5.136;2023-05-08T01:51:15;102074.03;;;14.33;88.19
64200;BME280;50516;52.272;5.136;2023-05-08T01:53:44;102071.53;;;14.32;87.87
64200;BME280;50516;52.272;5.136;2023-05-08T01:56:14;102073.22;;;14.33;88.13
64200;BME280;50516;52.272;5.136;2023-05-08T01:58:43;102071.81;;;14.35;88.54
64200;BME280;50516;52.272;5.136;2023-05-08T02:01:11;102082.84;;;14.30;88.58
64200;BME280;50516;52.272;5.136;2023-05-08T02:03:38;102080.88;;;14.25;88.25
64200;BME280;50516;52.272;5.136;2023-05-08T02:06:07;102075.94;;;14.28;87.84
64200;BME280;50516;52.272;5.136;2023-05-08T02:08:33;102081.47;;;14.28;87.88
64200;BME280;50516;52.272;5.136;2023-05-08T02:11:00;102082.81;;;14.25;88.14
64200;BME280;50516;52.272;5.136;2023-05-08T02:13:28;102072.03;;;14.18;88.09
64200;BME280;50516;52.272;5.136;2023-05-08T02:15:55;102083.59;;;14.15;88.08
64200;BME280;50516;52.272;5.136;2023-05-08T02:18:23;102084.16;;;14.17;88.28
64200;BME280;50516;52.272;5.136;2023-05-08T02:20:51;102078.38;;;14.19;87.82
64200;BME280;50516;52.272;5.136;2023-05-08T02:23:18;102079.47;;;14.18;88.21
64200;BME280;50516;52.272;5.136;2023-05-08T02:25:45;102083.84;;;14.09;87.80
64200;BME280;50516;52.272;5.136;2023-05-08T02:28:11;102081.88;;;14.04;87.87
64200;BME280;50516;52.272;5.136;2023-05-08T02:30:37;102078.84;;;14.05;87.75
64200;BME280;50516;52.272;5.136;2023-05-08T02:33:07;102086.84;;;14.02;87.85
64200;BME280;50516;52.272;5.136;2023-05-08T02:35:33;102083.22;;;14.01;87.73
64200;BME280;50516;52.272;5.136;2023-05-08T02:38:00;102085.97;;;14.01;88.29
64200;BME280;50516;52.272;5.136;2023-05-08T02:40:27;102088.75;;;14.01;88.66
64200;BME280;50516;52.272;5.136;2023-05-08T02:42:54;102080.44;;;14.01;88.23
64200;BME280;50516;52.272;5.136;2023-05-08T02:45:22;102079.88;;;13.94;87.96
64200;BME280;50516;52.272;5.136;2023-05-08T02:48:12;102083.41;;;13.90;87.87
64200;BME280;50516;52.272;5.136;2023-05-08T02:51:23;102075.13;;;13.90;87.68
64200;BME280;50516;52.272;5.136;2023-05-08T02:53:54;102073.16;;;13.85;88.12
64200;BME280;50516;52.272;5.136;2023-05-08T02:56:30;102084.47;;;13.83;87.85
64200;BME280;50516;52.272;5.136;2023-05-08T02:59:05;102086.13;;;13.84;87.45
64200;BME280;50516;52.272;5.136;2023-05-08T03:01:44;102072.88;;;13.81;87.60
64200;BME280;50516;52.272;5.136;2023-05-08T03:04:15;102080.31;;;13.81;87.51
64200;BME280;50516;52.272;5.136;2023-05-08T03:06:44;102069.81;;;13.78;87.46
64200;BME280;50516;52.272;5.136;2023-05-08T03:09:16;102067.03;;;13.78;87.55
64200;BME280;50516;52.272;5.136;2023-05-08T03:11:44;102064.78;;;13.69;87.55
64200;BME280;50516;52.272;5.136;2023-05-08T03:14:13;102061.13;;;13.64;87.88
64200;BME280;50516;52.272;5.136;2023-05-08T03:16:41;102065.31;;;13.66;87.83
64200;BME280;50516;52.272;5.136;2023-05-08T03:19:18;102067.78;;;13.68;88.54
64200;BME280;50516;52.272;5.136;2023-05-08T03:21:45;102063.63;;;13.65;88.60
64200;BME280;50516;52.272;5.136;2023-05-08T03:24:14;102063.63;;;13.65;88.80
64200;BME280;50516;52.272;5.136;2023-05-08T03:26:42;102066.38;;;13.65;88.50
64200;BME280;50516;52.272;5.136;2023-05-08T03:29:08;102065.81;;;13.63;88.31
64200;BME280;50516;52.272;5.136;2023-05-08T03:31:35;102068.03;;;13.61;88.38
64200;BME280;50516;52.272;5.136;2023-05-08T03:34:01;102072.69;;;13.61;88.71
64200;BME280;50516;52.272;5.136;2023-05-08T03:36:27;102063.84;;;13.59;88.77
64200;BME280;50516;52.272;5.136;2023-05-08T03:38:54;102067.94;;;13.56;89.01
64200;BME280;50516;52.272;5.136;2023-05-08T03:41:20;102057.50;;;13.58;89.63
64200;BME280;50516;52.272;5.136;2023-05-08T03:43:46;102051.47;;;13.61;89.29
64200;BME280;50516;52.272;5.136;2023-05-08T03:46:12;102057.25;;;13.60;89.35
64200;BME280;50516;52.272;5.136;2023-05-08T03:48:38;102064.44;;;13.66;89.41
64200;BME280;50516;52.272;5.136;2023-05-08T03:51:05;102055.09;;;13.67;89.71
64200;BME280;50516;52.272;5.136;2023-05-08T03:53:31;102052.06;;;13.68;90.18
64200;BME280;50516;52.272;5.136;2023-05-08T03:55:58;102064.81;;;13.75;90.39
64200;BME280;50516;52.272;5.136;2023-05-08T03:58:31;102056.00;;;13.78;90.80
64200;BME280;50516;52.272;5.136;2023-05-08T04:01:12;102053.28;;;13.83;90.86
64200;BME280;50516;52.272;5.136;2023-05-08T04:06:43;102061.31;;;13.90;91.18
64200;BME280;50516;52.272;5.136;2023-05-08T04:09:19;102064.69;;;13.97;91.69
64200;BME280;50516;52.272;5.136;2023-05-08T04:12:21;102070.28;;;14.07;92.48
64200;BME280;50516;52.272;5.136;2023-05-08T04:15:03;102057.31;;;14.07;92.22
64200;BME280;50516;52.272;5.136;2023-05-08T04:17:48;102068.66;;;14.11;92.34
64200;BME280;50516;52.272;5.136;2023-05-08T04:20:18;102072.78;;;14.09;92.37
64200;BME280;50516;52.272;5.136;2023-05-08T04:22:44;102072.56;;;14.15;92.75
64200;BME280;50516;52.272;5.136;2023-05-08T04:25:11;102078.91;;;14.21;92.65
64200;BME280;50516;52.272;5.136;2023-05-08T04:27:39;102074.00;;;14.23;92.52
64200;BME280;50516;52.272;5.136;2023-05-08T04:30:06;102082.81;;;14.25;92.66
64200;BME280;50516;52.272;5.136;2023-05-08T04:32:33;102079.81;;;14.27;92.62
64200;BME280;50516;52.272;5.136;2023-05-08T04:34:59;102080.34;;;14.29;92.70
64200;BME280;50516;52.272;5.136;2023-05-08T04:37:26;102079.56;;;14.33;92.65
64200;BME280;50516;52.272;5.136;2023-05-08T04:39:52;102081.22;;;14.34;92.94
64200;BME280;50516;52.272;5.136;2023-05-08T04:42:18;102084.56;;;14.36;92.79
64200;BME280;50516;52.272;5.136;2023-05-08T04:44:43;102090.66;;;14.43;92.48
64200;BME280;50516;52.272;5.136;2023-05-08T04:47:09;102097.88;;;14.50;92.61
64200;BME280;50516;52.272;5.136;2023-05-08T04:49:34;102090.19;;;14.52;92.83
64200;BME280;50516;52.272;5.136;2023-05-08T04:51:59;102105.16;;;14.61;92.51
64200;BME280;50516;52.272;5.136;2023-05-08T04:54:25;102104.34;;;14.66;92.44
64200;BME280;50516;52.272;5.136;2023-05-08T04:56:51;102107.38;;;14.64;92.77
64200;BME280;50516;52.272;5.136;2023-05-08T04:59:16;102106.03;;;14.67;92.84
64200;BME280;50516;52.272;5.136;2023-05-08T05:01:42;102108.25;;;14.70;93.05
64200;BME280;50516;52.272;5.136;2023-05-08T05:04:07;102106.84;;;14.67;93.46
64200;BME280;50516;52.272;5.136;2023-05-08T05:06:32;102105.78;;;14.73;93.55
64200;BME280;50516;52.272;5.136;2023-05-08T05:08:58;102114.06;;;14.73;93.52
64200;BME280;50516;52.272;5.136;2023-05-08T05:11:23;102114.06;;;14.73;93.87
64200;BME280;50516;52.272;5.136;2023-05-08T05:13:48;102114.63;;;14.75;93.92
64200;BME280;50516;52.272;5.136;2023-05-08T05:16:14;102123.47;;;14.72;94.07
64200;BME280;50516;52.272;5.136;2023-05-08T05:18:39;102119.34;;;14.75;94.07
64200;BME280;50516;52.272;5.136;2023-05-08T05:21:04;102126.53;;;14.76;94.33
64200;BME280;50516;52.272;5.136;2023-05-08T05:23:30;102135.09;;;14.74;94.66
64200;BME280;50516;52.272;5.136;2023-05-08T05:25:55;102126.22;;;14.72;94.76
64200;BME280;50516;52.272;5.136;2023-05-08T05:28:20;102127.91;;;14.78;94.58
64200;BME280;50516;52.272;5.136;2023-05-08T05:30:46;102137.34;;;14.83;94.41
64200;BME280;50516;52.272;5.136;2023-05-08T05:33:12;102139.84;;;14.84;94.68
64200;BME280;50516;52.272;5.136;2023-05-08T05:35:38;102128.25;;;14.87;94.92
64200;BME280;50516;52.272;5.136;2023-05-08T05:38:03;102130.19;;;14.92;94.84
64200;BME280;50516;52.272;5.136;2023-05-08T05:40:29;102129.63;;;14.95;95.12
64200;BME280;50516;52.272;5.136;2023-05-08T05:42:54;102134.91;;;14.96;95.27
64200;BME280;50516;52.272;5.136;2023-05-08T05:45:20;102130.22;;;15.02;94.84
64200;BME280;50516;52.272;5.136;2023-05-08T05:47:46;102130.50;;;15.06;95.07
64200;BME280;50516;52.272;5.136;2023-05-08T05:50:18;102136.06;;;15.11;94.83
64200;BME280;50516;52.272;5.136;2023-05-08T05:52:43;102120.88;;;15.13;94.89
64200;BME280;50516;52.272;5.136;2023-05-08T05:55:09;102131.13;;;15.18;94.68
64200;BME280;50516;52.272;5.136;2023-05-08T05:57:34;102134.72;;;15.24;94.81
64200;BME280;50516;52.272;5.136;2023-05-08T06:00:00;102134.44;;;15.30;94.57
64200;BME280;50516;52.272;5.136;2023-05-08T06:02:26;102138.06;;;15.31;95.04
64200;BME280;50516;52.272;5.136;2023-05-08T06:04:51;102138.91;;;15.31;95.09
64200;BME280;50516;52.272;5.136;2023-05-08T06:07:16;102147.75;;;15.39;95.30
64200;BME280;50516;52.272;5.136;2023-05-08T06:09:42;102155.78;;;15.45;95.25
64200;BME280;50516;52.272;5.136;2023-05-08T06:12:07;102153.63;;;15.52;95.06
64200;BME280;50516;52.272;5.136;2023-05-08T06:14:32;102145.84;;;15.49;95.30
64200;BME280;50516;52.272;5.136;2023-05-08T06:16:58;102151.34;;;15.34;95.86
64200;BME280;50516;52.272;5.136;2023-05-08T06:19:24;102150.25;;;15.35;96.11
64200;BME280;50516;52.272;5.136;2023-05-08T06:21:50;102161.03;;;15.37;96.36
64200;BME280;50516;52.272;5.136;2023-05-08T06:24:15;102157.94;;;15.23;96.84
64200;BME280;50516;52.272;5.136;2023-05-08T06:26:41;102155.78;;;15.45;96.65
64200;BME280;50516;52.272;5.136;2023-05-08T06:29:06;102151.38;;;15.55;96.48
64200;BME280;50516;52.272;5.136;2023-05-08T06:31:31;102154.75;;;15.72;96.02
64200;BME280;50516;52.272;5.136;2023-05-08T06:33:56;102154.47;;;15.74;95.87
64200;BME280;50516;52.272;5.136;2023-05-08T06:36:22;102159.22;;;15.88;95.85
64200;BME280;50516;52.272;5.136;2023-05-08T06:38:47;102151.47;;;16.01;95.38
64200;BME280;50516;52.272;5.136;2023-05-08T06:41:12;102159.78;;;16.11;95.01
64200;BME280;50516;52.272;5.136;2023-05-08T06:43:37;102162.00;;;16.09;95.26
64200;BME280;50516;52.272;5.136;2023-05-08T06:46:03;102163.38;;;16.22;94.98
64200;BME280;50516;52.272;5.136;2023-05-08T06:48:28;102159.75;;;16.32;94.02
64200;BME280;50516;52.272;5.136;2023-05-08T06:50:54;102153.41;;;16.31;94.65
64200;BME280;50516;52.272;5.136;2023-05-08T06:53:19;102146.44;;;16.34;94.74
64200;BME280;50516;52.272;5.136;2023-05-08T06:55:45;102148.69;;;16.32;95.18
64200;BME280;50516;52.272;5.136;2023-05-08T06:58:10;102144.22;;;16.41;95.25
64200;BME280;50516;52.272;5.136;2023-05-08T07:00:36;102146.16;;;16.46;94.92
64200;BME280;50516;52.272;5.136;2023-05-08T07:03:01;102140.88;;;16.49;94.25
64200;BME280;50516;52.272;5.136;2023-05-08T07:05:26;102148.06;;;16.60;94.37
64200;BME280;50516;52.272;5.136;2023-05-08T07:07:52;102146.94;;;16.61;94.71
64200;BME280;50516;52.272;5.136;2023-05-08T07:10:19;102148.94;;;16.51;95.20
64200;BME280;50516;52.272;5.136;2023-05-08T07:12:47;102143.94;;;16.48;96.12
64200;BME280;50516;52.272;5.136;2023-05-08T07:15:12;102148.63;;;16.57;95.65
64200;BME280;50516;52.272;5.136;2023-05-08T07:17:37;102139.19;;;16.53;95.88
64200;BME280;50516;52.272;5.136;2023-05-08T07:20:03;102143.38;;;16.40;96.21
64200;BME280;50516;52.272;5.136;2023-05-08T07:22:29;102147.25;;;16.50;96.44
64200;BME280;50516;52.272;5.136;2023-05-08T07:24:54;102144.75;;;16.58;96.20
64200;BME280;50516;52.272;5.136;2023-05-08T07:27:19;102147.75;;;16.67;96.24
64200;BME280;50516;52.272;5.136;2023-05-08T07:29:45;102144.66;;;16.79;95.44
64200;BME280;50516;52.272;5.136;2023-05-08T07:32:11;102146.38;;;16.65;96.16
64200;BME280;50516;52.272;5.136;2023-05-08T07:34:36;102149.72;;;16.61;96.69
64200;BME280;50516;52.272;5.136;2023-05-08T07:37:02;102138.06;;;16.70;96.08
64200;BME280;50516;52.272;5.136;2023-05-08T07:39:27;102143.13;;;16.47;96.94
64200;BME280;50516;52.272;5.136;2023-05-08T07:41:53;102147.81;;;16.41;97.81
64200;BME280;50516;52.272;5.136;2023-05-08T07:44:18;102154.16;;;16.63;97.67
64200;BME280;50516;52.272;5.136;2023-05-08T07:46:43;102154.94;;;16.78;96.96
64200;BME280;50516;52.272;5.136;2023-05-08T07:49:09;102157.19;;;16.66;97.59
64200;BME280;50516;52.272;5.136;2023-05-08T07:51:35;102149.66;;;16.82;97.80
64200;BME280;50516;52.272;5.136;2023-05-08T07:54:00;102150.78;;;16.86;97.17
64200;BME280;50516;52.272;5.136;2023-05-08T07:56:25;102156.59;;;16.90;96.31
64200;BME280;50516;52.272;5.136;2023-05-08T07:58:51;102149.66;;;16.92;96.43
64200;BME280;50516;52.272;5.136;2023-05-08T08:01:17;102139.91;;;17.00;96.76
64200;BME280;50516;52.272;5.136;2023-05-08T08:03:43;102142.34;;;17.12;95.32
64200;BME280;50516;52.272;5.136;2023-05-08T08:06:09;102143.47;;;17.11;95.12
64200;BME280;50516;52.272;5.136;2023-05-08T08:08:34;102145.09;;;17.17;95.10
64200;BME280;50516;52.272;5.136;2023-05-08T08:10:59;102134.50;;;17.24;94.77
64200;BME280;50516;52.272;5.136;2023-05-08T08:13:25;102134.50;;;17.24;95.82
64200;BME280;50516;52.272;5.136;2023-05-08T08:15:50;102136.44;;;17.29;94.14
64200;BME280;50516;52.272;5.136;2023-05-08T08:18:16;102133.75;;;17.58;92.89
64200;BME280;50516;52.272;5.136;2023-05-08T08:20:41;102137.66;;;17.57;93.12
64200;BME280;50516;52.272;5.136;2023-05-08T08:23:06;102135.94;;;17.61;93.51
64200;BME280;50516;52.272;5.136;2023-05-08T08:25:32;102130.91;;;17.68;93.32
64200;BME280;50516;52.272;5.136;2023-05-08T08:27:57;102126.38;;;17.78;93.41
64200;BME280;50516;52.272;5.136;2023-05-08T08:30:22;102134.91;;;17.92;92.73
64200;BME280;50516;52.272;5.136;2023-05-08T08:32:48;102138.16;;;17.99;92.29
64200;BME280;50516;52.272;5.136;2023-05-08T08:35:13;102132.63;;;17.99;91.71
64200;BME280;50516;52.272;5.136;2023-05-08T08:37:38;102131.28;;;17.86;91.35
64200;BME280;50516;52.272;5.136;2023-05-08T08:40:04;102135.75;;;17.87;93.52
64200;BME280;50516;52.272;5.136;2023-05-08T08:42:30;102139.94;;;17.90;93.13
64200;BME280;50516;52.272;5.136;2023-05-08T08:44:55;102140.22;;;17.88;93.32
64200;BME280;50516;52.272;5.136;2023-05-08T08:47:21;102143.47;;;17.95;93.21
64200;BME280;50516;52.272;5.136;2023-05-08T08:49:49;102145.44;;;17.95;93.38
64200;BME280;50516;52.272;5.136;2023-05-08T08:52:29;102134.63;;;17.93;94.20
64200;BME280;50516;52.272;5.136;2023-05-08T08:54:59;102136.66;;;18.12;93.85
64200;BME280;50516;52.272;5.136;2023-05-08T08:57:26;102146.50;;;18.33;90.97
64200;BME280;50516;52.272;5.136;2023-05-08T08:59:54;102149.91;;;18.25;92.34
64200;BME280;50516;52.272;5.136;2023-05-08T09:02:21;102140.06;;;18.38;91.93
64200;BME280;50516;52.272;5.136;2023-05-08T09:04:48;102154.78;;;18.38;91.72
64200;BME280;50516;52.272;5.136;2023-05-08T09:07:14;102140.53;;;18.16;92.46
64200;BME280;50516;52.272;5.136;2023-05-08T09:09:42;102142.28;;;18.06;94.17
64200;BME280;50516;52.272;5.136;2023-05-08T09:12:09;102134.44;;;18.14;95.10
64200;BME280;50516;52.272;5.136;2023-05-08T09:14:34;102144.75;;;18.08;94.13
64200;BME280;50516;52.272;5.136;2023-05-08T09:17:00;102138.44;;;18.02;92.60
64200;BME280;50516;52.272;5.136;2023-05-08T09:19:27;102147.34;;;17.99;93.66
64200;BME280;50516;52.272;5.136;2023-05-08T09:21:52;102141.75;;;18.04;94.42
64200;BME280;50516;52.272;5.136;2023-05-08T09:24:18;102149.94;;;18.20;92.71
64200;BME280;50516;52.272;5.136;2023-05-08T09:26:43;102150.53;;;18.17;92.34
64200;BME280;50516;52.272;5.136;2023-05-08T09:29:19;102153.09;;;18.08;93.27
64200;BME280;50516;52.272;5.136;2023-05-08T09:31:50;102141.50;;;18.01;93.93
64200;BME280;50516;52.272;5.136;2023-05-08T09:34:23;102147.88;;;18.01;94.98
64200;BME280;50516;52.272;5.136;2023-05-08T09:36:53;102146.22;;;18.00;93.82
64200;BME280;50516;52.272;5.136;2023-05-08T09:39:24;102148.75;;;17.97;94.17
64200;BME280;50516;52.272;5.136;2023-05-08T09:42:02;102150.28;;;18.13;94.33
64200;BME280;50516;52.272;5.136;2023-05-08T09:44:42;102151.59;;;18.21;93.95
64200;BME280;50516;52.272;5.136;2023-05-08T09:47:12;102154.53;;;18.05;92.48
64200;BME280;50516;52.272;5.136;2023-05-08T09:49:38;102155.06;;;18.08;93.50
64200;BME280;50516;52.272;5.136;2023-05-08T09:52:04;102156.34;;;17.81;94.47
64200;BME280;50516;52.272;5.136;2023-05-08T09:54:30;102149.09;;;17.85;94.17
64200;BME280;50516;52.272;5.136;2023-05-08T09:56:55;102148.22;;;17.95;94.05
64200;BME280;50516;52.272;5.136;2023-05-08T09:59:23;102146.50;;;18.04;93.38
64200;BME280;50516;52.272;5.136;2023-05-08T10:01:48;102147.16;;;18.20;93.14
64200;BME280;50516;52.272;5.136;2023-05-08T10:04:14;102155.59;;;18.39;91.99
64200;BME280;50516;52.272;5.136;2023-05-08T10:06:39;102148.69;;;18.36;92.33
64200;BME280;50516;52.272;5.136;2023-05-08T10:09:12;102146.63;;;18.18;92.15
64200;BME280;50516;52.272;5.136;2023-05-08T10:11:39;102146.25;;;17.95;92.82
64200;BME280;50516;52.272;5.136;2023-05-08T10:14:05;102145.72;;;17.93;92.85
64200;BME280;50516;52.272;5.136;2023-05-08T10:16:36;102149.56;;;18.02;92.64
64200;BME280;50516;52.272;5.136;2023-05-08T10:19:09;102148.28;;;18.19;92.35
64200;BME280;50516;52.272;5.136;2023-05-08T10:21:36;102152.69;;;18.25;91.64
64200;BME280;50516;52.272;5.136;2023-05-08T10:24:05;102151.69;;;18.40;90.09
64200;BME280;50516;52.272;5.136;2023-05-08T10:26:41;102151.59;;;18.74;89.39
64200;BME280;50516;52.272;5.136;2023-05-08T10:29:14;102145.59;;;18.91;89.30
64200;BME280;50516;52.272;5.136;2023-05-08T10:31:41;102148.53;;;19.00;88.17
64200;BME280;50516;52.272;5.136;2023-05-08T10:34:13;102149.84;;;18.84;89.19
64200;BME280;50516;52.272;5.136;2023-05-08T10:36:40;102145.88;;;18.90;89.32
64200;BME280;50516;52.272;5.136;2023-05-08T10:39:06;102144.72;;;18.96;88.61
64200;BME280;50516;52.272;5.136;2023-05-08T10:41:32;102154.63;;;19.02;88.04
64200;BME280;50516;52.272;5.136;2023-05-08T10:44:00;102147.56;;;19.10;87.67
64200;BME280;50516;52.272;5.136;2023-05-08T10:46:37;102149.94;;;19.22;86.73
64200;BME280;50516;52.272;5.136;2023-05-08T10:52:06;102152.91;;;19.06;87.27
64200;BME280;50516;52.272;5.136;2023-05-08T10:57:18;102143.84;;;18.95;87.91
64200;BME280;50516;52.272;5.136;2023-05-08T10:59:46;102144.22;;;19.51;86.80
64200;BME280;50516;52.272;5.136;2023-05-08T11:02:12;102144.72;;;19.72;84.87
64200;BME280;50516;52.272;5.136;2023-05-08T11:04:38;102136.63;;;19.76;82.85
64200;BME280;50516;52.272;5.136;2023-05-08T11:07:03;102141.41;;;19.70;84.53
64200;BME280;50516;52.272;5.136;2023-05-08T11:09:44;102144.19;;;19.89;83.37
64200;BME280;50516;52.272;5.136;2023-05-08T11:12:25;102148.72;;;20.18;82.74
64200;BME280;50516;52.272;5.136;2023-05-08T11:15:03;102141.41;;;20.22;80.40
64200;BME280;50516;52.272;5.136;2023-05-08T11:17:30;102138.75;;;20.31;79.75
64200;BME280;50516;52.272;5.136;2023-05-08T11:19:58;102131.22;;;20.45;79.44
64200;BME280;50516;52.272;5.136;2023-05-08T11:22:31;102131.38;;;20.82;79.61
64200;BME280;50516;52.272;5.136;2023-05-08T11:25:05;102128.44;;;21.01;78.87
64200;BME280;50516;52.272;5.136;2023-05-08T11:27:38;102125.50;;;21.20;78.86
64200;BME280;50516;52.272;5.136;2023-05-08T11:35:50;102125.78;;;20.68;75.75
64200;BME280;50516;52.272;5.136;2023-05-08T11:38:35;102124.09;;;20.94;76.87
64200;BME280;50516;52.272;5.136;2023-05-08T11:41:03;102118.53;;;20.67;76.68
64200;BME280;50516;52.272;5.136;2023-05-08T11:46:13;102112.69;;;20.21;77.90
64200;BME280;50516;52.272;5.136;2023-05-08T11:48:39;102106.50;;;20.52;78.07
64200;BME280;50516;52.272;5.136;2023-05-08T11:51:05;102103.84;;;21.03;75.83
64200;BME280;50516;52.272;5.136;2023-05-08T11:53:31;102100.31;;;20.55;74.83
64200;BME280;50516;52.272;5.136;2023-05-08T11:55:58;102102.84;;;20.71;76.73
64200;BME280;50516;52.272;5.136;2023-05-08T11:58:23;102101.16;;;20.97;76.70
64200;BME280;50516;52.272;5.136;2023-05-08T12:00:49;102099.06;;;21.03;77.03
64200;BME280;50516;52.272;5.136;2023-05-08T12:03:16;102092.81;;;21.20;76.69
64200;BME280;50516;52.272;5.136;2023-05-08T12:05:42;102091.63;;;21.12;73.12
64200;BME280;50516;52.272;5.136;2023-05-08T12:08:09;102092.06;;;20.92;74.08
64200;BME280;50516;52.272;5.136;2023-05-08T12:10:54;102091.13;;;20.96;74.59
64200;BME280;50516;52.272;5.136;2023-05-08T12:13:25;102088.50;;;21.14;75.28
64200;BME280;50516;52.272;5.136;2023-05-08T12:15:56;102091.94;;;20.97;75.25
64200;BME280;50516;52.272;5.136;2023-05-08T12:18:23;102085.72;;;21.14;75.51
64200;BME280;50516;52.272;5.136;2023-05-08T12:20:56;102085.00;;;21.08;76.27
64200;BME280;50516;52.272;5.136;2023-05-08T12:23:23;102083.06;;;21.31;75.48
64200;BME280;50516;52.272;5.136;2023-05-08T12:25:51;102084.72;;;21.32;75.44
64200;BME280;50516;52.272;5.136;2023-05-08T12:28:17;102076.34;;;21.69;74.16
64200;BME280;50516;52.272;5.136;2023-05-08T12:30:43;102071.28;;;21.80;72.25
64200;BME280;50516;52.272;5.136;2023-05-08T12:33:08;102081.94;;;21.69;71.25
64200;BME280;50516;52.272;5.136;2023-05-08T12:35:36;102077.31;;;21.73;69.18
64200;BME280;50516;52.272;5.136;2023-05-08T12:38:03;102071.59;;;21.78;72.50
64200;BME280;50516;52.272;5.136;2023-05-08T12:40:48;102070.66;;;21.83;74.25
64200;BME280;50516;52.272;5.136;2023-05-08T12:43:14;102064.53;;;22.03;74.06
64200;BME280;50516;52.272;5.136;2023-05-08T12:45:40;102058.97;;;22.12;71.10
64200;BME280;50516;52.272;5.136;2023-05-08T12:48:10;102061.44;;;22.14;72.79
64200;BME280;50516;52.272;5.136;2023-05-08T12:50:37;102060.00;;;22.25;71.84
64200;BME280;50516;52.272;5.136;2023-05-08T12:53:04;102059.03;;;22.21;72.75
64200;BME280;50516;52.272;5.136;2023-05-08T12:55:32;102057.13;;;22.30;71.64
64200;BME280;50516;52.272;5.136;2023-05-08T12:58:02;102061.91;;;22.38;71.87
64200;BME280;50516;52.272;5.136;2023-05-08T13:00:45;102053.69;;;22.42;70.92
64200;BME280;50516;52.272;5.136;2023-05-08T13:03:13;102047.97;;;22.16;70.91
64200;BME280;50516;52.272;5.136;2023-05-08T13:05:45;102050.25;;;22.14;72.00
64200;BME280;50516;52.272;5.136;2023-05-08T13:08:10;102047.09;;;22.38;70.94
64200;BME280;50516;52.272;5.136;2023-05-08T13:10:49;102046.16;;;22.60;68.57
64200;BME280;50516;52.272;5.136;2023-05-08T13:13:20;102038.25;;;22.62;68.99
64200;BME280;50516;52.272;5.136;2023-05-08T13:15:46;102048.81;;;22.56;69.02
64200;BME280;50516;52.272;5.136;2023-05-08T13:18:13;102050.09;;;22.41;68.99
64200;BME280;50516;52.272;5.136;2023-05-08T13:20:39;102054.53;;;22.11;67.56
64200;BME280;50516;52.272;5.136;2023-05-08T13:23:06;102050.34;;;22.31;68.90